createdAt,value
2023-01-17T00:02:08.755Z,95571.56
2023-01-17T00:05:30.524Z,95575.38
2023-01-17T00:08:50.690Z,95564.97
2023-01-17T00:11:56.976Z,95567.72
2023-01-17T00:15:02.996Z,95571.56
2023-01-17T00:18:09.713Z,95567.72
2023-01-17T00:21:30.763Z,95563.06
2023-01-17T00:24:56.166Z,95563.63
2023-01-17T00:27:59.041Z,95572.16
2023-01-17T00:31:04.376Z,95571.16
2023-01-17T00:34:06.843Z,95577.09
2023-01-17T00:37:10.219Z,95577.91
2023-01-17T00:40:15.843Z,95568.56
2023-01-17T00:43:42.195Z,95570.22
2023-01-17T00:47:03.751Z,95568.84
2023-01-17T00:50:26.823Z,95567.34
2023-01-17T00:53:47.830Z,95576.78
2023-01-17T00:57:13.871Z,95592.31
2023-01-17T01:00:37.173Z,95582.56
2023-01-17T01:03:59.243Z,95571.88
2023-01-17T01:07:20.383Z,95582.31
2023-01-17T01:10:42.588Z,95571.03
2023-01-17T01:14:06.682Z,95580.78
2023-01-17T01:17:28.858Z,95577.09
2023-01-17T01:20:50.102Z,95577.78
2023-01-17T01:24:12.418Z,95579.84
2023-01-17T01:27:33.749Z,95582.88
2023-01-17T01:30:58.630Z,95582.88
2023-01-17T01:34:03.996Z,95584.50
2023-01-17T01:37:10.215Z,95583.66
2023-01-17T01:40:16.818Z,95592.31
2023-01-17T01:43:43.313Z,95582.03
2023-01-17T01:46:51.480Z,95585.75
2023-01-17T01:49:58.595Z,95582.44
2023-01-17T01:53:09.359Z,95584.22
2023-01-17T01:56:20.207Z,95592.47
2023-01-17T01:59:26.708Z,95583.94
2023-01-17T02:02:36.666Z,95582.31
2023-01-17T02:05:44.897Z,95586.13
2023-01-17T02:08:52.247Z,95591.91
2023-01-17T02:11:58.751Z,95584.19
2023-01-17T02:15:09.824Z,95584.81
2023-01-17T02:18:45.580Z,95595.88
2023-01-17T02:22:19.174Z,95592.28
2023-01-17T02:26:18.872Z,95591.31
2023-01-17T02:30:20.830Z,95578.19
2023-01-17T02:33:40.998Z,95572.63
2023-01-17T02:36:59.167Z,95576.75
2023-01-17T02:40:13.344Z,95582.84
2023-01-17T02:43:23.583Z,95569.94
2023-01-17T02:46:28.972Z,95575.56
2023-01-17T02:49:38.059Z,95592.16
2023-01-17T02:53:20.387Z,95596.47
2023-01-17T02:56:52.105Z,95591.88
2023-01-17T03:00:14.221Z,95597.69
2023-01-17T03:03:33.239Z,95585.56
2023-01-17T03:06:53.122Z,95583.59
2023-01-17T03:10:05.487Z,95584.06
2023-01-17T03:13:11.830Z,95581.00
2023-01-17T03:16:23.992Z,95587.78
2023-01-17T03:19:30.291Z,95590.97
2023-01-17T03:22:38.403Z,95593.91
2023-01-17T03:25:44.710Z,95595.22
2023-01-17T03:28:53.162Z,95601.38
2023-01-17T03:31:59.446Z,95614.94
2023-01-17T03:35:04.799Z,95625.69
2023-01-17T03:38:13.811Z,95627.06
2023-01-17T03:41:19.437Z,95611.25
2023-01-17T03:44:25.776Z,95601.47
2023-01-17T03:47:31.121Z,95603.09
2023-01-17T03:50:37.544Z,95609.34
2023-01-17T03:53:47.059Z,95616.44
2023-01-17T03:56:53.587Z,95611.25
2023-01-17T03:59:58.953Z,95607.72
2023-01-17T04:03:05.313Z,95604.91
2023-01-17T04:06:11.185Z,95606.22
2023-01-17T04:09:20.257Z,95603.03
2023-01-17T04:12:25.696Z,95613.44
2023-01-17T04:15:31.969Z,95612.72
2023-01-17T04:18:37.418Z,95609.19
2023-01-17T04:21:43.841Z,95618.25
2023-01-17T04:24:52.086Z,95621.22
2023-01-17T04:27:58.636Z,95618.72
2023-01-17T04:31:04.081Z,95616.81
2023-01-17T04:34:10.447Z,95629.31
2023-01-17T04:37:16.397Z,95632.50
2023-01-17T04:40:26.904Z,95638.38
2023-01-17T04:43:32.284Z,95625.19
2023-01-17T04:46:38.775Z,95630.75
2023-01-17T04:49:44.309Z,95625.56
2023-01-17T04:52:50.595Z,95622.28
2023-01-17T04:55:58.972Z,95629.47
2023-01-17T04:59:05.186Z,95632.91
2023-01-17T05:02:10.852Z,95638.88
2023-01-17T05:05:17.258Z,95627.66
2023-01-17T05:08:22.595Z,95643.34
2023-01-17T05:11:32.188Z,95637.69
2023-01-17T05:14:37.830Z,95638.84
2023-01-17T05:17:44.057Z,95639.28
2023-01-17T05:20:49.530Z,95643.31
2023-01-17T05:23:55.759Z,95643.78
2023-01-17T05:27:05.366Z,95654.63
2023-01-17T05:30:13.712Z,95639.38
2023-01-17T05:33:19.114Z,95641.16
2023-01-17T05:36:25.310Z,95639.38
2023-01-17T05:39:31.185Z,95627.69
2023-01-17T05:42:40.244Z,95566.09
2023-01-17T05:45:47.200Z,95633.56
2023-01-17T05:48:53.394Z,95627.31
2023-01-17T05:51:58.775Z,95626.97
2023-01-17T05:55:06.860Z,95624.94
2023-01-17T05:58:19.468Z,95642.53
2023-01-17T06:01:26.105Z,95653.50
2023-01-17T06:04:31.683Z,95663.78
2023-01-17T06:07:38.280Z,95671.13
2023-01-17T06:10:43.892Z,95676.66
2023-01-17T06:13:54.201Z,95671.69
2023-01-17T06:16:59.872Z,95680.53
2023-01-17T06:20:07.137Z,95671.13
2023-01-17T06:23:16.079Z,95650.00
2023-01-17T06:26:22.507Z,95667.47
2023-01-17T06:29:30.725Z,95670.16
2023-01-17T06:32:36.931Z,95666.84
2023-01-17T06:35:44.399Z,95668.34
2023-01-17T06:38:53.852Z,95673.53
2023-01-17T06:42:00.400Z,95672.81
2023-01-17T06:45:11.714Z,95679.03
2023-01-17T06:48:17.132Z,95671.81
2023-01-17T06:51:23.562Z,95678.16
2023-01-17T06:54:32.075Z,95685.72
2023-01-17T06:57:38.758Z,95689.03
2023-01-17T07:00:52.793Z,95690.78
2023-01-17T07:03:59.402Z,95691.41
2023-01-17T07:07:04.871Z,95689.31
2023-01-17T07:10:11.976Z,95696.91
2023-01-17T07:13:18.019Z,95684.28
2023-01-17T07:16:27.031Z,95686.66
2023-01-17T07:19:32.697Z,95682.53
2023-01-17T07:22:39.139Z,95685.22
2023-01-17T07:25:44.984Z,95652.81
2023-01-17T07:28:51.492Z,95685.13
2023-01-17T07:31:59.630Z,95690.56
2023-01-17T07:35:05.879Z,95692.47
2023-01-17T07:38:14.289Z,95691.41
2023-01-17T07:41:20.515Z,95695.75
2023-01-17T07:44:25.959Z,95702.84
2023-01-17T07:47:35.988Z,95702.63
2023-01-17T07:50:42.184Z,95706.16
2023-01-17T07:53:48.497Z,95711.13
2023-01-17T07:56:53.994Z,95720.22
2023-01-17T08:00:00.221Z,95724.34
2023-01-17T08:03:08.412Z,95718.91
2023-01-17T08:06:23.333Z,95721.25
2023-01-17T08:09:28.691Z,95730.94
2023-01-17T08:12:36.170Z,95739.44
2023-01-17T08:15:41.685Z,95738.63
2023-01-17T08:18:50.777Z,95744.91
2023-01-17T08:21:56.122Z,95736.41
2023-01-17T08:25:02.527Z,95747.25
2023-01-17T08:28:09.078Z,95739.94
2023-01-17T08:31:17.716Z,95742.75
2023-01-17T08:34:26.511Z,95741.47
2023-01-17T08:37:32.719Z,95739.19
2023-01-17T08:40:40.192Z,95749.59
2023-01-17T08:43:46.446Z,95738.50
2023-01-17T08:46:51.848Z,95746.06
2023-01-17T08:50:01.323Z,95746.41
2023-01-17T08:53:06.934Z,95747.44
2023-01-17T08:56:13.242Z,95756.91
2023-01-17T08:59:19.259Z,95740.09
2023-01-17T09:02:25.532Z,95740.53
2023-01-17T09:05:33.723Z,95737.88
2023-01-17T09:08:40.854Z,95737.97
2023-01-17T09:11:46.538Z,95744.94
2023-01-17T09:14:52.867Z,95750.44
2023-01-17T09:18:01.471Z,95721.38
2023-01-17T09:21:19.462Z,95750.28
2023-01-17T09:24:24.815Z,95759.34
2023-01-17T09:27:30.990Z,95749.53
2023-01-17T09:30:36.366Z,95760.69
2023-01-17T09:33:43.362Z,95761.97
2023-01-17T09:36:51.615Z,95758.16
2023-01-17T09:39:57.846Z,95764.75
2023-01-17T09:43:18.299Z,95769.72
2023-01-17T09:46:31.618Z,95767.06
2023-01-17T09:49:45.277Z,95766.22
2023-01-17T09:53:01.689Z,95778.03
2023-01-17T09:56:15.621Z,95780.78
2023-01-17T09:59:42.825Z,95780.25
2023-01-17T10:03:29.027Z,95771.47
2023-01-17T10:07:07.408Z,95767.69
2023-01-17T10:10:44.221Z,95761.38
2023-01-17T10:14:05.871Z,95785.13
2023-01-17T10:17:30.832Z,95780.34
2023-01-17T10:21:01.237Z,95781.69
2023-01-17T10:24:52.128Z,95775.03
2023-01-17T10:28:08.439Z,95783.25
2023-01-17T10:31:24.813Z,95782.41
2023-01-17T10:34:40.014Z,95778.94
2023-01-17T10:37:48.521Z,95778.69
2023-01-17T10:41:03.328Z,95783.88
2023-01-17T10:44:26.017Z,95775.97
2023-01-17T10:47:40.876Z,95777.53
2023-01-17T10:51:02.441Z,95781.41
2023-01-17T10:54:27.411Z,95782.41
2023-01-17T10:57:44.489Z,95787.38
2023-01-17T11:01:03.401Z,95758.53
2023-01-17T11:04:23.772Z,95785.78
2023-01-17T11:07:32.308Z,95770.75
2023-01-17T11:10:47.289Z,95781.03
2023-01-17T11:13:57.838Z,95781.78
2023-01-17T11:17:11.639Z,95780.16
2023-01-17T11:20:31.064Z,95771.34
2023-01-17T11:23:37.418Z,95785.16
2023-01-17T11:26:52.322Z,95777.34
2023-01-17T11:30:19.386Z,95777.94
2023-01-17T11:33:55.797Z,95785.09
2023-01-17T11:37:26.390Z,95766.28
2023-01-17T11:40:39.590Z,95776.88
2023-01-17T11:43:55.735Z,95774.88
2023-01-17T11:47:20.809Z,95770.78
2023-01-17T11:50:30.821Z,95780.47
2023-01-17T11:53:42.711Z,95774.97
2023-01-17T11:56:48.373Z,95761.94
2023-01-17T12:00:14.792Z,95768.97
2023-01-17T12:03:48.217Z,95765.66
2023-01-17T12:07:36.655Z,95759.38
2023-01-17T12:10:57.251Z,95757.88
2023-01-17T12:14:20.273Z,95761.63
2023-01-17T12:17:56.024Z,95751.88
2023-01-17T12:21:20.838Z,95749.00
2023-01-17T12:25:15.164Z,95749.00
2023-01-17T12:28:54.257Z,95744.47
2023-01-17T12:32:33.135Z,95742.66
2023-01-17T12:35:50.915Z,95757.78
2023-01-17T12:38:56.745Z,95760.56
2023-01-17T12:42:18.839Z,95764.16
2023-01-17T12:45:35.134Z,95772.50
2023-01-17T12:48:42.345Z,95777.22
2023-01-17T12:51:56.084Z,95773.34
2023-01-17T12:55:15.140Z,95780.63
2023-01-17T12:58:29.477Z,95778.72
2023-01-17T13:01:39.983Z,95772.13
2023-01-17T13:04:58.781Z,95767.72
2023-01-17T13:08:21.704Z,95776.53
2023-01-17T13:11:35.642Z,95772.94
2023-01-17T13:14:44.974Z,95768.88
2023-01-17T13:17:58.969Z,95741.91
2023-01-17T13:21:32.767Z,95766.94
2023-01-17T13:24:58.964Z,95768.88
2023-01-17T13:28:32.285Z,95769.28
2023-01-17T13:31:51.060Z,95775.47
2023-01-17T13:35:24.148Z,95776.56
2023-01-17T13:38:55.329Z,95778.06
2023-01-17T13:42:24.959Z,95790.59
2023-01-17T13:45:34.647Z,95795.81
2023-01-17T13:48:44.072Z,95798.28
2023-01-17T13:52:10.939Z,95807.63
2023-01-17T13:55:48.989Z,95814.50
2023-01-17T13:59:08.711Z,95828.34
2023-01-17T14:02:42.385Z,95832.38
2023-01-17T14:06:00.546Z,95833.72
2023-01-17T14:09:18.627Z,95842.81
2023-01-17T14:12:35.204Z,95841.72
2023-01-17T14:15:54.084Z,95845.44
2023-01-17T14:18:59.945Z,95852.44
2023-01-17T14:22:29.818Z,95862.88
2023-01-17T14:25:44.555Z,95871.28
2023-01-17T14:28:51.837Z,95875.78
2023-01-17T14:32:05.432Z,95883.19
2023-01-17T14:35:26.232Z,95885.38
2023-01-17T14:38:43.980Z,95873.28
2023-01-17T14:41:50.394Z,95885.38
2023-01-17T14:45:03.988Z,95899.13
2023-01-17T14:48:21.041Z,95893.91
2023-01-17T14:51:26.523Z,95894.44
2023-01-17T14:54:36.988Z,95899.88
2023-01-17T14:57:43.084Z,95904.88
2023-01-17T15:00:52.319Z,95904.88
2023-01-17T15:03:59.562Z,95910.31
2023-01-17T15:07:06.572Z,95916.50
2023-01-17T15:10:21.902Z,95915.13
2023-01-17T15:13:44.701Z,95916.34
2023-01-17T15:16:52.241Z,95919.91
2023-01-17T15:20:06.502Z,95923.72
2023-01-17T15:23:23.328Z,95930.03
2023-01-17T15:26:38.195Z,95931.84
2023-01-17T15:29:45.312Z,95929.47
2023-01-17T15:32:53.189Z,95926.44
2023-01-17T15:36:04.666Z,95923.25
2023-01-17T15:39:25.060Z,95927.88
2023-01-17T15:42:37.231Z,95924.59
2023-01-17T15:45:43.740Z,95918.69
2023-01-17T15:48:49.212Z,95911.09
2023-01-17T15:51:58.883Z,95898.59
2023-01-17T15:55:17.105Z,95908.56
2023-01-17T15:58:31.670Z,95904.81
2023-01-17T16:01:37.332Z,95908.06
2023-01-17T16:04:43.904Z,95894.34
2023-01-17T16:07:49.295Z,95896.50
2023-01-17T16:11:02.231Z,95898.09
2023-01-17T16:14:10.841Z,95894.34
2023-01-17T16:17:21.444Z,95893.91
2023-01-17T16:20:33.913Z,95888.25
2023-01-17T16:23:40.166Z,95886.84
2023-01-17T16:26:45.893Z,95884.75
2023-01-17T16:29:56.534Z,95891.28
2023-01-17T16:33:03.763Z,95892.38
2023-01-17T16:36:15.318Z,95887.63
2023-01-17T16:39:20.866Z,95875.84
2023-01-17T16:42:28.564Z,95880.06
2023-01-17T16:45:44.184Z,95876.53
2023-01-17T16:48:50.462Z,95873.09
2023-01-17T16:51:55.783Z,95870.63
2023-01-17T16:55:02.192Z,95870.63
2023-01-17T16:58:07.977Z,95868.13
2023-01-17T17:01:22.900Z,95855.25
2023-01-17T17:04:28.455Z,95848.59
2023-01-17T17:07:35.318Z,95854.09
2023-01-17T17:10:40.825Z,95848.06
2023-01-17T17:13:50.199Z,95847.22
2023-01-17T17:17:02.754Z,95846.38
2023-01-17T17:20:12.937Z,95847.22
2023-01-17T17:23:18.413Z,95837.75
2023-01-17T17:26:25.196Z,95841.66
2023-01-17T17:29:30.826Z,95846.81
2023-01-17T17:32:39.819Z,95839.47
2023-01-17T17:35:45.247Z,95844.22
2023-01-17T17:38:53.798Z,95828.16
2023-01-17T17:42:00.127Z,95830.75
2023-01-17T17:45:06.798Z,95825.56
2023-01-17T17:48:15.000Z,95843.91
2023-01-17T17:51:27.857Z,95858.69
2023-01-17T17:54:33.716Z,95852.56
2023-01-17T17:57:40.025Z,95859.28
2023-01-17T18:00:45.498Z,95865.06
2023-01-17T18:03:55.567Z,95861.75
2023-01-17T18:07:01.467Z,95868.63
2023-01-17T18:10:09.783Z,95862.00
2023-01-17T18:13:15.206Z,95873.84
2023-01-17T18:16:25.794Z,95873.84
2023-01-17T18:19:34.077Z,95873.84
2023-01-17T18:22:41.008Z,95884.34
2023-01-17T18:25:46.665Z,95881.19
2023-01-17T18:28:54.970Z,95886.41
2023-01-17T18:32:00.427Z,95883.56
2023-01-17T18:35:10.550Z,95881.66
2023-01-17T18:38:15.990Z,95885.66
2023-01-17T18:41:26.230Z,95884.47
2023-01-17T18:44:32.019Z,95874.75
2023-01-17T18:47:38.974Z,95883.25
2023-01-17T18:50:47.354Z,95890.69
2023-01-17T18:53:54.247Z,95888.81
2023-01-17T18:57:00.032Z,95896.50
2023-01-17T19:00:07.745Z,95890.34
2023-01-17T19:03:13.129Z,95900.63
2023-01-17T19:06:26.881Z,95887.47
2023-01-17T19:09:32.380Z,95891.59
2023-01-17T19:12:40.868Z,95890.81
2023-01-17T19:15:46.450Z,95889.13
2023-01-17T19:18:52.800Z,95876.13
2023-01-17T19:22:01.044Z,95881.09
2023-01-17T19:25:08.704Z,95876.66
2023-01-17T19:28:14.443Z,95865.19
2023-01-17T19:31:23.399Z,95871.84
2023-01-17T19:34:32.648Z,95861.31
2023-01-17T19:38:00.280Z,95853.28
2023-01-17T19:41:23.191Z,95844.44
2023-01-17T19:44:30.108Z,95832.94
2023-01-17T19:47:35.524Z,95832.47
2023-01-17T19:50:41.949Z,95831.13
2023-01-17T19:53:50.329Z,95832.69
2023-01-17T19:57:04.378Z,95835.06
2023-01-17T20:00:18.792Z,95838.34
2023-01-17T20:03:37.357Z,95835.50
2023-01-17T20:06:42.941Z,95827.00
2023-01-17T20:09:54.275Z,95822.28
2023-01-17T20:13:09.263Z,95814.97
2023-01-17T20:16:30.457Z,95807.16
2023-01-17T20:19:38.844Z,95804.34
2023-01-17T20:23:01.391Z,95803.50
2023-01-17T20:26:14.731Z,95800.81
2023-01-17T20:29:25.200Z,95803.88
2023-01-17T20:32:43.570Z,95800.06
2023-01-17T20:36:04.887Z,95802.88
2023-01-17T20:39:20.186Z,95806.19
2023-01-17T20:42:29.315Z,95796.97
2023-01-17T20:45:34.763Z,95795.53
2023-01-17T20:48:47.960Z,95789.13
2023-01-17T20:51:53.588Z,95796.28
2023-01-17T20:54:59.964Z,95793.59
2023-01-17T20:58:08.281Z,95798.78
2023-01-17T21:01:21.361Z,95799.25
2023-01-17T21:04:29.213Z,95802.94
2023-01-17T21:07:35.745Z,95794.16
2023-01-17T21:10:41.173Z,95803.25
2023-01-17T21:13:51.672Z,95812.97
2023-01-17T21:16:57.676Z,95818.53
2023-01-17T21:20:06.884Z,95818.94
2023-01-17T21:23:18.121Z,95811.59
2023-01-17T21:26:28.029Z,95799.28
2023-01-17T21:29:36.875Z,95784.34
2023-01-17T21:32:43.167Z,95784.81
2023-01-17T21:35:49.107Z,95788.81
2023-01-17T21:38:58.698Z,95747.66
2023-01-17T21:42:04.197Z,95778.66
2023-01-17T21:45:14.473Z,95791.44
2023-01-17T21:48:19.992Z,95804.31
2023-01-17T21:51:47.171Z,95796.06
2023-01-17T21:55:08.387Z,95798.78
2023-01-17T21:58:47.867Z,95791.91
2023-01-17T22:01:56.096Z,95802.09
2023-01-17T22:05:02.514Z,95801.84
2023-01-17T22:08:15.507Z,95798.16
2023-01-17T22:11:25.522Z,95795.31
2023-01-17T22:14:30.916Z,95794.09
2023-01-17T22:17:41.224Z,95778.88
2023-01-17T22:20:46.683Z,95768.19
2023-01-17T22:23:56.641Z,95766.69
2023-01-17T22:27:02.091Z,95769.28
2023-01-17T22:30:13.145Z,95768.44
2023-01-17T22:33:21.324Z,95757.59
2023-01-17T22:36:29.882Z,95741.28
2023-01-17T22:39:35.360Z,95731.94
2023-01-17T22:42:42.219Z,95728.06
2023-01-17T22:45:47.849Z,95717.19
2023-01-17T22:48:59.496Z,95724.56
2023-01-17T22:52:04.879Z,95727.97
2023-01-17T22:55:13.218Z,95723.09
2023-01-17T22:58:18.658Z,95717.13
2023-01-17T23:01:28.207Z,95720.88
2023-01-17T23:04:36.484Z,95717.75
2023-01-17T23:07:46.626Z,95701.63
2023-01-17T23:11:07.703Z,95697.84
2023-01-17T23:14:20.832Z,95690.16
2023-01-17T23:17:45.417Z,95686.91
2023-01-17T23:20:54.507Z,95690.09
2023-01-17T23:23:59.919Z,95688.19
2023-01-17T23:27:21.971Z,95676.81
2023-01-17T23:30:34.763Z,95676.56
2023-01-17T23:33:41.055Z,95668.59
2023-01-17T23:36:49.314Z,95674.25
2023-01-17T23:39:55.578Z,95671.63
2023-01-17T23:43:17.119Z,95662.03
2023-01-17T23:46:24.283Z,95660.97
2023-01-17T23:49:31.566Z,95660.69
2023-01-17T23:52:40.859Z,95648.25
2023-01-17T23:55:48.271Z,95639.84
2023-01-17T23:58:54.539Z,95633.38
